createdAt,value
2023-02-18T00:01:53.218Z,11.93
2023-02-18T00:04:19.761Z,11.90
2023-02-18T00:06:46.328Z,11.94
2023-02-18T00:09:18.356Z,11.93
2023-02-18T00:11:52.398Z,11.95
2023-02-18T00:14:19.504Z,11.98
2023-02-18T00:16:57.313Z,11.98
2023-02-18T00:19:26.644Z,11.96
2023-02-18T00:21:55.889Z,11.93
2023-02-18T00:24:40.847Z,11.94
2023-02-18T00:27:07.652Z,11.94
2023-02-18T00:29:34.276Z,11.94
2023-02-18T00:32:03.105Z,11.94
2023-02-18T00:34:34.421Z,11.93
2023-02-18T00:37:01.118Z,11.92
2023-02-18T00:39:27.720Z,11.92
2023-02-18T00:41:54.298Z,11.96
2023-02-18T00:44:26.228Z,11.96
2023-02-18T00:46:53.626Z,11.95
2023-02-18T00:49:22.336Z,11.95
2023-02-18T00:51:51.315Z,11.92
2023-02-18T00:54:17.738Z,11.92
2023-02-18T00:56:51.750Z,11.90
2023-02-18T00:59:20.428Z,11.97
2023-02-18T01:01:52.613Z,11.99
2023-02-18T01:04:21.666Z,11.98
2023-02-18T01:06:48.331Z,12.01
2023-02-18T01:09:17.462Z,11.98
2023-02-18T01:11:45.466Z,12.03
2023-02-18T01:14:18.536Z,11.99
2023-02-18T01:16:48.323Z,12.01
2023-02-18T01:19:16.841Z,12.03
2023-02-18T01:21:49.250Z,12.06
2023-02-18T01:24:15.730Z,12.00
2023-02-18T01:26:42.339Z,11.98
2023-02-18T01:29:17.672Z,12.07
2023-02-18T01:31:46.442Z,12.06
2023-02-18T01:34:15.792Z,12.04
2023-02-18T01:36:42.734Z,12.05
2023-02-18T01:39:09.371Z,12.01
2023-02-18T01:41:37.998Z,12.00
2023-02-18T01:44:25.198Z,12.02
2023-02-18T01:46:51.734Z,12.03
2023-02-18T01:49:27.815Z,12.01
2023-02-18T01:52:07.095Z,11.96
2023-02-18T01:54:39.811Z,12.02
2023-02-18T01:57:10.600Z,11.99
2023-02-18T01:59:46.460Z,11.98
2023-02-18T02:02:16.857Z,11.97
2023-02-18T02:04:44.074Z,11.97
2023-02-18T02:07:11.001Z,11.93
2023-02-18T02:09:39.736Z,11.94
2023-02-18T02:12:28.609Z,11.92
2023-02-18T02:15:23.482Z,11.92
2023-02-18T02:18:24.383Z,11.93
2023-02-18T02:21:28.743Z,11.93
2023-02-18T02:24:26.025Z,11.97
2023-02-18T02:27:35.003Z,11.98
2023-02-18T02:30:26.423Z,12.00
2023-02-18T02:33:04.925Z,11.99
2023-02-18T02:35:38.860Z,12.01
2023-02-18T02:38:12.508Z,11.97
2023-02-18T02:40:50.692Z,11.94
2023-02-18T02:43:27.964Z,11.98
2023-02-18T02:46:04.735Z,11.98
2023-02-18T02:48:42.942Z,11.95
2023-02-18T02:51:27.638Z,12.00
2023-02-18T02:53:54.584Z,11.97
2023-02-18T02:56:23.936Z,11.99
2023-02-18T02:59:08.630Z,11.98
2023-02-18T03:01:56.054Z,12.00
2023-02-18T03:04:35.294Z,11.98
2023-02-18T03:07:34.744Z,11.95
2023-02-18T03:10:48.642Z,11.99
2023-02-18T03:13:33.252Z,11.99
2023-02-18T03:16:18.765Z,11.98
2023-02-18T03:19:06.187Z,12.00
2023-02-18T03:21:45.367Z,11.98
2023-02-18T03:24:20.593Z,11.96
2023-02-18T03:27:00.982Z,11.95
2023-02-18T03:29:29.001Z,11.96
2023-02-18T03:32:03.038Z,11.98
2023-02-18T03:34:34.147Z,11.96
2023-02-18T03:37:01.880Z,11.95
2023-02-18T03:39:33.520Z,12.00
2023-02-18T03:42:02.365Z,11.97
2023-02-18T03:44:35.266Z,11.97
2023-02-18T03:47:04.405Z,11.98
2023-02-18T03:49:30.883Z,11.99
2023-02-18T03:51:57.351Z,11.99
2023-02-18T03:54:23.886Z,11.98
2023-02-18T03:56:54.952Z,11.97
2023-02-18T03:59:24.068Z,11.95
2023-02-18T04:01:52.240Z,11.93
2023-02-18T04:04:18.848Z,11.93
2023-02-18T04:06:52.905Z,11.90
2023-02-18T04:09:21.725Z,11.88
2023-02-18T04:11:48.195Z,11.87
2023-02-18T04:14:15.008Z,11.88
2023-02-18T04:16:51.753Z,11.87
2023-02-18T04:19:18.315Z,11.86
2023-02-18T04:21:44.722Z,11.82
2023-02-18T04:24:11.112Z,11.81
2023-02-18T04:26:37.586Z,11.82
2023-02-18T04:29:06.972Z,11.82
2023-02-18T04:31:36.368Z,11.82
2023-02-18T04:34:05.366Z,11.79
2023-02-18T04:36:34.479Z,11.84
2023-02-18T04:39:00.935Z,11.79
2023-02-18T04:41:30.030Z,11.82
2023-02-18T04:44:10.035Z,11.85
2023-02-18T04:46:48.660Z,11.91
2023-02-18T04:49:15.268Z,11.88
2023-02-18T04:51:44.114Z,11.93
2023-02-18T04:54:10.621Z,11.93
2023-02-18T04:56:37.176Z,11.93
2023-02-18T04:59:04.408Z,11.95
2023-02-18T05:01:31.093Z,11.94
2023-02-18T05:03:57.937Z,11.94
2023-02-18T05:06:24.438Z,11.94
2023-02-18T05:08:53.618Z,11.93
2023-02-18T05:11:20.126Z,11.91
2023-02-18T05:13:46.610Z,11.86
2023-02-18T05:16:13.864Z,11.88
2023-02-18T05:18:43.154Z,11.85
2023-02-18T05:21:09.997Z,11.85
2023-02-18T05:23:36.747Z,11.82
2023-02-18T05:26:03.382Z,11.78
2023-02-18T05:28:30.151Z,11.76
2023-02-18T05:30:56.950Z,11.76
2023-02-18T05:33:23.706Z,11.73
2023-02-18T05:35:57.985Z,11.77
2023-02-18T05:38:24.543Z,11.76
2023-02-18T05:40:50.908Z,11.67
2023-02-18T05:43:18.102Z,11.68
2023-02-18T05:45:46.060Z,11.65
2023-02-18T05:48:12.450Z,11.60
2023-02-18T05:50:47.751Z,11.55
2023-02-18T05:53:17.729Z,11.57
2023-02-18T05:55:46.503Z,11.55
2023-02-18T05:58:13.699Z,11.57
2023-02-18T06:00:50.206Z,11.55
2023-02-18T06:03:16.745Z,11.45
2023-02-18T06:05:45.794Z,11.46
2023-02-18T06:08:12.629Z,11.47
2023-02-18T06:10:48.195Z,11.42
2023-02-18T06:13:25.298Z,11.39
2023-02-18T06:15:55.404Z,11.33
2023-02-18T06:18:22.430Z,11.28
2023-02-18T06:20:49.252Z,11.29
2023-02-18T06:23:18.549Z,11.31
2023-02-18T06:25:51.319Z,11.33
2023-02-18T06:28:22.738Z,11.36
2023-02-18T06:30:50.358Z,11.31
2023-02-18T06:33:17.101Z,11.31
2023-02-18T06:35:56.598Z,11.32
2023-02-18T06:38:28.570Z,11.31
2023-02-18T06:40:57.502Z,11.29
2023-02-18T06:43:29.085Z,11.26
2023-02-18T06:45:55.507Z,11.27
2023-02-18T06:48:22.155Z,11.26
2023-02-18T06:50:54.144Z,11.30
2023-02-18T06:53:20.984Z,11.32
2023-02-18T06:55:53.469Z,11.29
2023-02-18T06:58:19.879Z,11.31
2023-02-18T07:00:47.295Z,11.33
2023-02-18T07:03:17.191Z,11.34
2023-02-18T07:05:46.340Z,11.35
2023-02-18T07:08:15.594Z,11.35
2023-02-18T07:10:42.500Z,11.35
2023-02-18T07:13:16.654Z,11.36
2023-02-18T07:15:46.134Z,11.37
2023-02-18T07:18:12.952Z,11.40
2023-02-18T07:20:42.176Z,11.37
2023-02-18T07:23:11.369Z,11.37
2023-02-18T07:25:41.016Z,11.37
2023-02-18T07:28:07.900Z,11.38
2023-02-18T07:30:37.074Z,11.39
2023-02-18T07:33:11.910Z,11.41
2023-02-18T07:35:44.698Z,11.46
2023-02-18T07:38:13.639Z,11.50
2023-02-18T07:40:40.618Z,11.54
2023-02-18T07:43:06.970Z,11.63
2023-02-18T07:45:41.497Z,11.64
2023-02-18T07:48:07.950Z,11.69
2023-02-18T07:50:35.225Z,11.72
2023-02-18T07:53:09.892Z,11.76
2023-02-18T07:55:53.550Z,11.82
2023-02-18T07:58:24.737Z,11.83
2023-02-18T08:00:54.155Z,11.87
2023-02-18T08:03:31.628Z,11.89
2023-02-18T08:06:01.413Z,11.97
2023-02-18T08:08:30.813Z,12.03
2023-02-18T08:11:13.401Z,12.09
2023-02-18T08:13:47.001Z,12.15
2023-02-18T08:16:14.447Z,12.14
2023-02-18T08:18:42.043Z,12.22
2023-02-18T08:21:09.035Z,12.23
2023-02-18T08:23:47.470Z,12.27
2023-02-18T08:26:16.137Z,12.30
2023-02-18T08:28:51.746Z,12.29
2023-02-18T08:31:31.995Z,12.32
2023-02-18T08:34:01.115Z,12.35
2023-02-18T08:36:30.776Z,12.35
2023-02-18T08:38:58.185Z,12.43
2023-02-18T08:41:24.646Z,12.51
2023-02-18T08:43:54.663Z,12.55
2023-02-18T08:46:35.154Z,12.60
2023-02-18T08:49:03.288Z,12.63
2023-02-18T08:51:30.331Z,12.68
2023-02-18T08:53:59.479Z,12.73
2023-02-18T08:56:28.785Z,12.71
2023-02-18T08:58:58.739Z,12.71
2023-02-18T09:01:25.939Z,12.73
2023-02-18T09:03:52.401Z,12.72
2023-02-18T09:06:18.914Z,12.72
2023-02-18T09:08:45.768Z,12.73
2023-02-18T09:11:12.481Z,12.76
2023-02-18T09:13:39.776Z,12.80
2023-02-18T09:16:09.623Z,12.82
2023-02-18T09:18:36.756Z,12.86
2023-02-18T09:21:05.549Z,12.91
2023-02-18T09:23:33.691Z,12.91
2023-02-18T09:26:00.741Z,12.94
2023-02-18T09:28:27.414Z,12.95
2023-02-18T09:30:56.259Z,13.02
2023-02-18T09:33:23.106Z,13.02
2023-02-18T09:35:49.512Z,13.00
2023-02-18T09:38:17.918Z,13.02
2023-02-18T09:40:48.955Z,13.02
2023-02-18T09:43:38.838Z,13.05
2023-02-18T09:46:21.600Z,13.15
2023-02-18T09:48:52.383Z,13.17
2023-02-18T09:51:20.141Z,13.22
2023-02-18T09:53:47.863Z,13.28
2023-02-18T09:56:20.791Z,13.27
2023-02-18T09:58:49.138Z,13.35
2023-02-18T10:01:32.864Z,13.44
2023-02-18T10:04:03.958Z,13.46
2023-02-18T10:06:35.379Z,13.45
2023-02-18T10:09:06.384Z,13.48
2023-02-18T10:11:41.650Z,13.50
2023-02-18T10:14:15.954Z,13.45
2023-02-18T10:16:45.110Z,13.42
2023-02-18T10:19:20.654Z,13.45
2023-02-18T10:21:50.281Z,13.44
2023-02-18T10:24:27.322Z,13.41
2023-02-18T10:26:55.619Z,13.41
2023-02-18T10:29:23.399Z,13.41
2023-02-18T10:31:53.211Z,13.37
2023-02-18T10:35:13.682Z,13.36
2023-02-18T10:37:54.352Z,13.40
2023-02-18T10:40:59.913Z,13.41
2023-02-18T10:43:53.702Z,13.38
2023-02-18T10:46:33.425Z,13.51
2023-02-18T10:49:42.103Z,13.56
2023-02-18T10:52:19.697Z,13.53
2023-02-18T10:54:54.727Z,13.51
2023-02-18T10:57:23.490Z,13.48
2023-02-18T11:00:16.306Z,13.44
2023-02-18T11:02:44.441Z,13.44
2023-02-18T11:05:39.875Z,13.43
2023-02-18T11:08:25.803Z,13.40
2023-02-18T11:10:54.057Z,13.46
2023-02-18T11:13:36.976Z,13.47
2023-02-18T11:16:09.350Z,13.52
2023-02-18T11:18:52.053Z,13.55
2023-02-18T11:21:29.429Z,13.57
2023-02-18T11:23:57.737Z,13.57
2023-02-18T11:26:32.507Z,13.59
2023-02-18T11:29:08.065Z,13.59
2023-02-18T11:31:45.374Z,13.54
2023-02-18T11:34:20.530Z,13.56
2023-02-18T11:36:50.774Z,13.64
2023-02-18T11:39:22.498Z,13.72
2023-02-18T11:42:05.415Z,13.72
2023-02-18T11:44:52.365Z,13.62
2023-02-18T11:47:31.151Z,13.69
2023-02-18T11:50:08.918Z,13.63
2023-02-18T11:52:41.685Z,13.65
2023-02-18T11:55:15.769Z,13.67
2023-02-18T11:57:55.042Z,13.68
2023-02-18T12:00:47.881Z,13.69
2023-02-18T12:03:41.109Z,13.83
2023-02-18T12:06:30.406Z,13.86
2023-02-18T12:09:04.357Z,13.94
2023-02-18T12:11:42.558Z,14.00
2023-02-18T12:14:24.434Z,14.01
2023-02-18T12:16:56.147Z,14.00
2023-02-18T12:19:52.058Z,14.08
2023-02-18T12:22:33.849Z,14.03
2023-02-18T12:28:56.139Z,13.87
2023-02-18T12:31:46.188Z,13.93
2023-02-18T12:35:13.457Z,14.02
2023-02-18T12:37:54.101Z,14.17
2023-02-18T12:40:48.156Z,14.19
2023-02-18T12:44:05.302Z,14.34
2023-02-18T12:46:57.047Z,14.45
2023-02-18T12:49:26.685Z,14.46
2023-02-18T12:52:14.649Z,14.30
2023-02-18T12:55:02.369Z,14.29
2023-02-18T12:58:10.421Z,14.37
2023-02-18T13:01:09.873Z,14.50
2023-02-18T13:03:58.217Z,14.50
2023-02-18T13:06:41.014Z,14.62
2023-02-18T13:09:07.755Z,14.65
2023-02-18T13:11:45.413Z,14.70
2023-02-18T13:14:22.323Z,14.70
2023-02-18T13:16:52.408Z,14.75
2023-02-18T13:19:28.714Z,14.79
2023-02-18T13:22:04.762Z,14.77
2023-02-18T13:24:35.694Z,14.82
2023-02-18T13:27:16.670Z,14.82
2023-02-18T13:29:52.187Z,14.78
2023-02-18T13:32:32.396Z,14.71
2023-02-18T13:34:58.862Z,14.67
2023-02-18T13:37:36.158Z,14.74
2023-02-18T13:40:04.233Z,14.61
2023-02-18T13:42:30.581Z,14.51
2023-02-18T13:44:57.033Z,14.48
2023-02-18T13:47:37.625Z,14.48
2023-02-18T13:50:22.154Z,14.43
2023-02-18T13:53:00.464Z,14.29
2023-02-18T13:55:55.704Z,14.27
2023-02-18T13:58:29.299Z,14.23
2023-02-18T14:01:04.908Z,14.08
2023-02-18T14:03:36.218Z,14.14
2023-02-18T14:06:13.966Z,14.01
2023-02-18T14:08:43.366Z,13.96
2023-02-18T14:11:14.373Z,13.86
2023-02-18T14:13:48.646Z,13.86
2023-02-18T14:16:15.275Z,13.83
2023-02-18T14:18:41.702Z,13.77
2023-02-18T14:21:13.961Z,13.70
2023-02-18T14:23:55.891Z,13.70
2023-02-18T14:26:32.169Z,13.65
2023-02-18T14:29:20.866Z,13.67
2023-02-18T14:31:54.079Z,13.57
2023-02-18T14:34:22.822Z,13.53
2023-02-18T14:37:19.461Z,13.50
2023-02-18T14:40:13.690Z,13.51
2023-02-18T14:42:51.911Z,13.43
2023-02-18T14:45:41.942Z,13.38
2023-02-18T14:48:28.012Z,13.37
2023-02-18T14:50:56.542Z,13.36
2023-02-18T14:53:26.477Z,13.31
2023-02-18T14:56:03.783Z,13.25
2023-02-18T14:58:36.217Z,13.24
2023-02-18T15:01:33.551Z,13.21
2023-02-18T15:04:01.509Z,13.20
2023-02-18T15:06:38.436Z,13.18
2023-02-18T15:09:31.605Z,13.18
2023-02-18T15:12:00.661Z,13.19
2023-02-18T15:14:31.947Z,13.20
2023-02-18T15:16:59.777Z,13.17
2023-02-18T15:19:29.538Z,13.15
2023-02-18T15:21:57.568Z,13.12
2023-02-18T15:24:27.017Z,13.08
2023-02-18T15:26:58.902Z,13.01
2023-02-18T15:29:28.420Z,12.99
2023-02-18T15:31:59.325Z,12.93
2023-02-18T15:34:28.782Z,12.90
2023-02-18T15:37:03.238Z,12.81
2023-02-18T15:39:32.392Z,12.79
2023-02-18T15:42:06.152Z,12.73
2023-02-18T15:44:35.965Z,12.70
2023-02-18T15:47:07.592Z,12.64
2023-02-18T15:49:38.954Z,12.60
2023-02-18T15:52:08.777Z,12.57
2023-02-18T15:54:39.349Z,12.57
2023-02-18T15:57:07.151Z,12.53
2023-02-18T15:59:35.967Z,12.50
2023-02-18T16:02:08.326Z,12.45
2023-02-18T16:04:39.697Z,12.42
2023-02-18T16:07:23.410Z,12.40
2023-02-18T16:09:50.436Z,12.36
2023-02-18T16:12:30.514Z,12.38
2023-02-18T16:15:00.145Z,12.36
2023-02-18T16:17:29.243Z,12.33
2023-02-18T16:20:05.356Z,12.28
2023-02-18T16:22:36.710Z,12.26
2023-02-18T16:25:23.760Z,12.23
2023-02-18T16:27:59.577Z,12.20
2023-02-18T16:30:32.558Z,12.17
2023-02-18T16:32:59.490Z,12.14
2023-02-18T16:35:32.697Z,12.13
2023-02-18T16:38:04.358Z,12.04
2023-02-18T16:40:35.406Z,12.02
2023-02-18T16:43:19.709Z,11.99
2023-02-18T16:45:53.793Z,11.98
2023-02-18T16:48:35.535Z,11.95
2023-02-18T16:51:16.638Z,11.93
2023-02-18T16:53:44.674Z,11.93
2023-02-18T16:56:24.256Z,11.90
2023-02-18T16:58:51.444Z,11.87
2023-02-18T17:01:33.718Z,11.85
2023-02-18T17:04:02.073Z,11.79
2023-02-18T17:06:34.420Z,11.78
2023-02-18T17:09:01.307Z,11.76
2023-02-18T17:11:58.241Z,11.69
2023-02-18T17:14:23.668Z,11.69
2023-02-18T17:16:55.841Z,11.68
2023-02-18T17:19:22.431Z,11.66
2023-02-18T17:21:53.606Z,11.65
2023-02-18T17:24:22.546Z,11.63
2023-02-18T17:26:51.097Z,11.59
2023-02-18T17:29:17.951Z,11.58
2023-02-18T17:31:47.196Z,11.59
2023-02-18T17:34:29.026Z,11.58
2023-02-18T17:36:57.726Z,11.56
2023-02-18T17:39:29.212Z,11.55
2023-02-18T17:42:16.953Z,11.54
2023-02-18T17:44:43.526Z,11.47
2023-02-18T17:47:10.079Z,11.48
2023-02-18T17:49:39.076Z,11.48
2023-02-18T17:52:05.719Z,11.47
2023-02-18T17:54:35.377Z,11.46
2023-02-18T17:57:01.811Z,11.41
2023-02-18T17:59:31.379Z,11.43
2023-02-18T18:02:00.715Z,11.40
2023-02-18T18:04:27.472Z,11.40
2023-02-18T18:06:55.831Z,11.34
2023-02-18T18:09:25.565Z,11.34
2023-02-18T18:11:57.931Z,11.30
2023-02-18T18:14:24.208Z,11.30
2023-02-18T18:16:53.383Z,11.29
2023-02-18T18:19:22.626Z,11.26
2023-02-18T18:21:51.340Z,11.23
2023-02-18T18:24:18.123Z,11.20
2023-02-18T18:26:44.882Z,11.20
2023-02-18T18:29:11.615Z,11.20
2023-02-18T18:31:38.588Z,11.21
2023-02-18T18:34:07.607Z,11.16
2023-02-18T18:36:34.005Z,11.19
2023-02-18T18:39:01.815Z,11.16
2023-02-18T18:41:28.220Z,11.17
2023-02-18T18:43:59.357Z,11.13
2023-02-18T18:46:30.645Z,11.13
2023-02-18T18:48:59.592Z,11.14
2023-02-18T18:51:29.786Z,11.13
2023-02-18T18:53:56.360Z,11.12
2023-02-18T18:56:23.202Z,11.12
2023-02-18T18:58:53.510Z,11.13
2023-02-18T19:01:27.004Z,11.12
2023-02-18T19:03:54.200Z,11.07
2023-02-18T19:06:25.258Z,11.05
2023-02-18T19:08:51.858Z,11.04
2023-02-18T19:11:18.622Z,11.00
2023-02-18T19:13:45.747Z,10.98
2023-02-18T19:16:27.862Z,10.97
2023-02-18T19:18:54.308Z,10.91
2023-02-18T19:21:20.898Z,10.88
2023-02-18T19:23:47.569Z,10.86
2023-02-18T19:26:15.881Z,10.79
2023-02-18T19:28:43.511Z,10.77
2023-02-18T19:31:11.242Z,10.76
2023-02-18T19:33:39.058Z,10.74
2023-02-18T19:36:10.684Z,10.76
2023-02-18T19:38:38.515Z,10.73
2023-02-18T19:41:09.843Z,10.75
2023-02-18T19:43:36.492Z,10.76
2023-02-18T19:46:11.309Z,10.70
2023-02-18T19:48:37.768Z,10.71
2023-02-18T19:51:05.302Z,10.65
2023-02-18T19:53:32.089Z,10.70
2023-02-18T19:56:02.262Z,10.68
2023-02-18T19:58:29.134Z,10.73
2023-02-18T20:00:59.694Z,10.75
2023-02-18T20:03:26.375Z,10.75
2023-02-18T20:05:52.741Z,10.74
2023-02-18T20:08:19.150Z,10.75
2023-02-18T20:10:45.610Z,10.75
2023-02-18T20:13:12.226Z,10.76
2023-02-18T20:15:40.797Z,10.78
2023-02-18T20:18:10.482Z,10.76
2023-02-18T20:20:39.946Z,10.74
2023-02-18T20:23:08.766Z,10.74
2023-02-18T20:25:47.516Z,10.76
2023-02-18T20:28:14.834Z,10.78
2023-02-18T20:30:41.678Z,10.77
2023-02-18T20:33:08.660Z,10.77
2023-02-18T20:35:35.419Z,10.76
2023-02-18T20:38:04.650Z,10.76
2023-02-18T20:40:38.348Z,10.75
2023-02-18T20:43:04.875Z,10.76
2023-02-18T20:45:34.302Z,10.75
2023-02-18T20:48:03.345Z,10.75
2023-02-18T20:50:29.741Z,10.75
2023-02-18T20:52:58.089Z,10.72
2023-02-18T20:55:30.042Z,10.73
2023-02-18T20:57:57.163Z,10.77
2023-02-18T21:00:23.784Z,10.76
2023-02-18T21:02:52.465Z,10.74
2023-02-18T21:05:19.585Z,10.72
2023-02-18T21:07:46.397Z,10.72
2023-02-18T21:10:48.784Z,10.68
2023-02-18T21:13:15.310Z,10.70
2023-02-18T21:15:41.976Z,10.64
2023-02-18T21:18:08.810Z,10.58
2023-02-18T21:20:35.638Z,10.54
2023-02-18T21:23:07.522Z,10.47
2023-02-18T21:25:35.680Z,10.42
2023-02-18T21:28:02.333Z,10.43
2023-02-18T21:30:38.579Z,10.44
2023-02-18T21:33:08.739Z,10.41
2023-02-18T21:35:36.554Z,10.41
2023-02-18T21:38:05.836Z,10.37
2023-02-18T21:40:32.487Z,10.33
2023-02-18T21:43:05.223Z,10.31
2023-02-18T21:45:36.507Z,10.27
2023-02-18T21:48:32.374Z,10.24
2023-02-18T21:51:02.654Z,10.20
2023-02-18T21:53:29.056Z,10.17
2023-02-18T21:56:08.033Z,10.15
2023-02-18T21:58:36.302Z,10.10
2023-02-18T22:01:02.745Z,10.10
2023-02-18T22:03:31.823Z,10.11
2023-02-18T22:06:00.010Z,10.10
2023-02-18T22:08:27.860Z,10.04
2023-02-18T22:10:54.612Z,10.10
2023-02-18T22:13:23.644Z,10.10
2023-02-18T22:15:56.882Z,10.07
2023-02-18T22:18:23.822Z,10.05
2023-02-18T22:20:59.807Z,10.04
2023-02-18T22:23:26.402Z,10.03
2023-02-18T22:25:52.899Z,10.03
2023-02-18T22:28:19.726Z,10.04
2023-02-18T22:30:46.209Z,10.05
2023-02-18T22:33:12.665Z,10.02
2023-02-18T22:35:39.060Z,10.04
2023-02-18T22:38:08.273Z,10.02
2023-02-18T22:40:37.352Z,10.05
2023-02-18T22:43:04.039Z,10.05
2023-02-18T22:45:30.749Z,10.08
2023-02-18T22:48:00.115Z,10.10
2023-02-18T22:50:26.805Z,10.09
2023-02-18T22:52:53.786Z,10.08
2023-02-18T22:55:22.798Z,10.15
2023-02-18T22:57:51.549Z,10.14
2023-02-18T23:00:27.054Z,10.14
2023-02-18T23:02:53.768Z,10.14
2023-02-18T23:05:22.319Z,10.14
2023-02-18T23:07:50.954Z,10.17
2023-02-18T23:10:20.921Z,10.15
2023-02-18T23:12:47.420Z,10.17
2023-02-18T23:15:16.204Z,10.21
2023-02-18T23:17:42.826Z,10.23
2023-02-18T23:20:12.804Z,10.23
2023-02-18T23:22:41.914Z,10.26
2023-02-18T23:25:08.858Z,10.25
2023-02-18T23:27:35.362Z,10.24
2023-02-18T23:30:02.077Z,10.27
2023-02-18T23:32:31.868Z,10.27
2023-02-18T23:34:58.356Z,10.27
2023-02-18T23:37:46.811Z,10.22
2023-02-18T23:40:23.312Z,10.21
2023-02-18T23:42:55.594Z,10.17
2023-02-18T23:45:22.193Z,10.13
2023-02-18T23:47:48.922Z,10.14
2023-02-18T23:50:18.430Z,10.11
2023-02-18T23:52:48.815Z,10.12
2023-02-18T23:55:21.847Z,10.12
2023-02-18T23:57:48.777Z,10.10
